QFA506 YSSY-YBBN
Flight info
| Callsign | QFA506 |
|---|---|
| Flight time | N/A |
| Altitude | 37000 |
| Route | TESAT H252 OLSEM Y193 BANDA H252 BN |
| Aircraft | B738/M-SDE2E3FGHIRWXY/LB1 |
Departure
| Time | 2026-05-06 18:47 |
|---|---|
| Airport | Sydney Kingsford Smith International Airport (YSSY) |
Arrival
| Time | N/A |
|---|---|
| Airport | Brisbane International Airport (YBBN) |
| Time | Latitude | Longitude | Altitude | Speed | Heading |
|---|---|---|---|---|---|
| 2026-05-06 18:01 | -33.93112 | 151.17714 | 29 ft | 0 kts | 190° |
| 2026-05-06 18:30 | -33.93110 | 151.17714 | 29 ft | 3 kts | 191° |
| 2026-05-06 18:30 | -33.93084 | 151.17722 | 29 ft | 4 kts | 200° |
| 2026-05-06 18:30 | -33.93061 | 151.17736 | 29 ft | 4 kts | 230° |
| 2026-05-06 18:31 | -33.93054 | 151.17757 | 29 ft | 2 kts | 295° |
| 2026-05-06 18:31 | -33.93055 | 151.17758 | 29 ft | 1 kts | 295° |
| 2026-05-06 18:33 | -33.93049 | 151.17743 | 29 ft | 5 kts | 295° |
| 2026-05-06 18:33 | -33.93023 | 151.17679 | 29 ft | 11 kts | 294° |
| 2026-05-06 18:33 | -33.93007 | 151.17602 | 29 ft | 6 kts | 277° |
| 2026-05-06 18:33 | -33.93022 | 151.17554 | 29 ft | 7 kts | 221° |
| 2026-05-06 18:34 | -33.93068 | 151.17524 | 29 ft | 8 kts | 200° |
| 2026-05-06 18:34 | -33.93129 | 151.17526 | 29 ft | 9 kts | 168° |
| 2026-05-06 18:34 | -33.93193 | 151.17544 | 29 ft | 10 kts | 167° |
| 2026-05-06 18:34 | -33.93265 | 151.17562 | 29 ft | 12 kts | 168° |
| 2026-05-06 18:35 | -33.93352 | 151.17584 | 29 ft | 13 kts | 169° |
| 2026-05-06 18:35 | -33.93439 | 151.17589 | 29 ft | 13 kts | 189° |
| 2026-05-06 18:35 | -33.93524 | 151.17595 | 29 ft | 12 kts | 168° |
| 2026-05-06 18:35 | -33.93606 | 151.17618 | 29 ft | 12 kts | 166° |
| 2026-05-06 18:36 | -33.93693 | 151.17666 | 29 ft | 14 kts | 154° |
| 2026-05-06 18:36 | -33.93786 | 151.17699 | 29 ft | 14 kts | 167° |
| 2026-05-06 18:36 | -33.93863 | 151.17755 | 29 ft | 13 kts | 139° |
| 2026-05-06 18:36 | -33.93946 | 151.17793 | 28 ft | 13 kts | 167° |
| 2026-05-06 18:37 | -33.94046 | 151.17818 | 28 ft | 20 kts | 168° |
| 2026-05-06 18:37 | -33.94136 | 151.17840 | 28 ft | 20 kts | 169° |
| 2026-05-06 18:37 | -33.94314 | 151.17886 | 29 ft | 19 kts | 168° |
| 2026-05-06 18:37 | -33.94442 | 151.17906 | 29 ft | 18 kts | 194° |
| 2026-05-06 18:38 | -33.94565 | 151.17891 | 29 ft | 18 kts | 168° |
| 2026-05-06 18:38 | -33.94685 | 151.17924 | 29 ft | 18 kts | 167° |
| 2026-05-06 18:38 | -33.94808 | 151.17957 | 29 ft | 18 kts | 168° |
| 2026-05-06 18:38 | -33.94932 | 151.17988 | 29 ft | 18 kts | 168° |
| 2026-05-06 18:39 | -33.95050 | 151.18019 | 29 ft | 17 kts | 168° |
| 2026-05-06 18:39 | -33.95153 | 151.18057 | 29 ft | 14 kts | 141° |
| 2026-05-06 18:39 | -33.95162 | 151.18167 | 29 ft | 14 kts | 76° |
| 2026-05-06 18:40 | -33.95117 | 151.18409 | 29 ft | 16 kts | 77° |
| 2026-05-06 18:40 | -33.95128 | 151.18538 | 29 ft | 16 kts | 117° |
| 2026-05-06 18:40 | -33.95205 | 151.18641 | 29 ft | 18 kts | 138° |
| 2026-05-06 18:40 | -33.95314 | 151.18716 | 29 ft | 18 kts | 162° |
| 2026-05-06 18:41 | -33.95433 | 151.18748 | 29 ft | 17 kts | 168° |
| 2026-05-06 18:41 | -33.95548 | 151.18780 | 29 ft | 17 kts | 167° |
| 2026-05-06 18:41 | -33.95662 | 151.18809 | 29 ft | 18 kts | 168° |
| 2026-05-06 18:41 | -33.95798 | 151.18845 | 29 ft | 23 kts | 168° |
| 2026-05-06 18:42 | -33.95969 | 151.18888 | 29 ft | 26 kts | 168° |
| 2026-05-06 18:42 | -33.96141 | 151.18933 | 29 ft | 24 kts | 167° |
| 2026-05-06 18:42 | -33.96302 | 151.18975 | 29 ft | 23 kts | 168° |
| 2026-05-06 18:42 | -33.96455 | 151.19014 | 29 ft | 22 kts | 168° |
| 2026-05-06 18:43 | -33.96604 | 151.19054 | 29 ft | 22 kts | 167° |
| 2026-05-06 18:43 | -33.96751 | 151.19069 | 29 ft | 21 kts | 189° |
| 2026-05-06 18:43 | -33.96892 | 151.19087 | 29 ft | 20 kts | 167° |
| 2026-05-06 18:43 | -33.97026 | 151.19120 | 29 ft | 17 kts | 168° |
| 2026-05-06 18:44 | -33.97123 | 151.19180 | 29 ft | 16 kts | 104° |
| 2026-05-06 18:44 | -33.97108 | 151.19298 | 31 ft | 15 kts | 78° |
| 2026-05-06 18:44 | -33.97053 | 151.19375 | 26 ft | 13 kts | 347° |
| 2026-05-06 18:44 | -33.96977 | 151.19350 | 26 ft | 0 kts | 346° |
| 2026-05-06 18:46 | -33.96824 | 151.19310 | 23 ft | 58 kts | 347° |
| 2026-05-06 18:46 | -33.96192 | 151.19145 | 26 ft | 125 kts | 348° |
| 2026-05-06 18:46 | -33.95181 | 151.18889 | 203 ft | 162 kts | 346° |
| 2026-05-06 18:47 | -33.94044 | 151.18604 | 844 ft | 170 kts | 347° |
| 2026-05-06 18:47 | -33.92854 | 151.18299 | 1518 ft | 179 kts | 347° |
| 2026-05-06 18:47 | -33.91611 | 151.17983 | 2168 ft | 189 kts | 349° |
| 2026-05-06 18:47 | -33.90323 | 151.17637 | 2916 ft | 196 kts | 348° |
| 2026-05-06 18:48 | -33.88904 | 151.17223 | 3160 ft | 222 kts | 352° |
| 2026-05-06 18:48 | -33.87314 | 151.17220 | 3487 ft | 234 kts | 7° |
| 2026-05-06 18:48 | -33.85662 | 151.17356 | 4029 ft | 240 kts | 6° |
| 2026-05-06 18:48 | -33.84559 | 151.17518 | 4404 ft | 242 kts | 17° |
| 2026-05-06 18:49 | -33.83144 | 151.18528 | 5100 ft | 236 kts | 48° |
| 2026-05-06 18:49 | -33.82254 | 151.20162 | 5792 ft | 235 kts | 60° |
| 2026-05-06 18:49 | -33.81225 | 151.22519 | 6465 ft | 248 kts | 61° |
| 2026-05-06 18:49 | -33.80679 | 151.23802 | 6682 ft | 262 kts | 61° |
| 2026-05-06 18:50 | -33.79836 | 151.25786 | 7306 ft | 270 kts | 62° |
| 2026-05-06 18:50 | -33.78973 | 151.27812 | 8029 ft | 275 kts | 60° |
| 2026-05-06 18:50 | -33.78081 | 151.29895 | 8682 ft | 284 kts | 61° |
| 2026-05-06 18:50 | -33.77161 | 151.32032 | 9384 ft | 291 kts | 62° |
| 2026-05-06 18:51 | -33.76218 | 151.34217 | 10079 ft | 297 kts | 62° |
| 2026-05-06 18:51 | -33.75258 | 151.36438 | 10669 ft | 307 kts | 61° |
| 2026-05-06 18:51 | -33.74233 | 151.38802 | 10838 ft | 331 kts | 62° |
| 2026-05-06 18:51 | -33.73135 | 151.41335 | 11006 ft | 353 kts | 62° |
| 2026-05-06 18:52 | -33.71941 | 151.43947 | 11342 ft | 366 kts | 55° |
| 2026-05-06 18:52 | -33.70339 | 151.46355 | 11890 ft | 371 kts | 44° |
| 2026-05-06 18:52 | -33.68395 | 151.48387 | 12637 ft | 371 kts | 36° |
| 2026-05-06 18:52 | -33.66327 | 151.50260 | 13349 ft | 374 kts | 35° |
| 2026-05-06 18:53 | -33.64226 | 151.52127 | 14031 ft | 378 kts | 35° |
| 2026-05-06 18:53 | -33.62090 | 151.54020 | 14371 ft | 387 kts | 36° |
| 2026-05-06 18:53 | -33.59901 | 151.55977 | 14582 ft | 397 kts | 37° |
| 2026-05-06 18:53 | -33.57686 | 151.57977 | 15193 ft | 397 kts | 36° |
| 2026-05-06 18:54 | -33.55167 | 151.60257 | 16284 ft | 392 kts | 35° |
| 2026-05-06 18:54 | -33.50744 | 151.64260 | 17510 ft | 402 kts | 36° |
| 2026-05-06 18:54 | -33.46237 | 151.68338 | 18760 ft | 410 kts | 35° |
| 2026-05-06 18:54 | -33.42771 | 151.71471 | 19613 ft | 414 kts | 35° |
| 2026-05-06 18:55 | -33.40460 | 151.73557 | 20184 ft | 417 kts | 35° |
| 2026-05-06 18:55 | -33.38080 | 151.75558 | 20720 ft | 419 kts | 28° |
| 2026-05-06 18:55 | -33.35464 | 151.77088 | 21257 ft | 419 kts | 18° |
| 2026-05-06 18:55 | -33.32674 | 151.78101 | 21806 ft | 419 kts | 12° |
| 2026-05-06 18:56 | -33.29879 | 151.78983 | 22349 ft | 422 kts | 12° |
| 2026-05-06 18:56 | -33.27032 | 151.79864 | 22852 ft | 425 kts | 11° |
| 2026-05-06 18:56 | -33.24156 | 151.80758 | 23346 ft | 428 kts | 11° |
| 2026-05-06 18:56 | -33.20554 | 151.81888 | 23917 ft | 431 kts | 11° |
| 2026-05-06 18:57 | -33.14722 | 151.83746 | 24766 ft | 435 kts | 11° |
| 2026-05-06 18:57 | -33.08844 | 151.85634 | 25576 ft | 439 kts | 11° |
| 2026-05-06 18:57 | -33.02907 | 151.87542 | 26355 ft | 444 kts | 11° |
| 2026-05-06 18:57 | -32.96905 | 151.89468 | 27082 ft | 448 kts | 11° |
| 2026-05-06 18:58 | -32.90864 | 151.91402 | 27784 ft | 452 kts | 11° |
| 2026-05-06 18:58 | -32.84757 | 151.93356 | 28473 ft | 455 kts | 10° |
| 2026-05-06 18:58 | -32.78623 | 151.95315 | 29135 ft | 458 kts | 10° |
| 2026-05-06 18:58 | -32.72440 | 151.97286 | 29835 ft | 460 kts | 10° |
| 2026-05-06 18:59 | -32.66277 | 151.99252 | 30747 ft | 455 kts | 9° |
| 2026-05-06 18:59 | -32.60157 | 152.01200 | 31417 ft | 455 kts | 9° |
| 2026-05-06 18:59 | -32.54118 | 152.03116 | 32109 ft | 454 kts | 9° |
| 2026-05-06 18:59 | -32.48030 | 152.05047 | 32818 ft | 452 kts | 8° |
| 2026-05-06 19:00 | -32.41965 | 152.06968 | 33435 ft | 451 kts | 8° |
| 2026-05-06 19:00 | -32.35916 | 152.08881 | 34154 ft | 448 kts | 7° |
| 2026-05-06 19:00 | -32.29885 | 152.10785 | 34688 ft | 448 kts | 7° |
| 2026-05-06 19:00 | -32.23880 | 152.12679 | 35227 ft | 446 kts | 7° |
| 2026-05-06 19:01 | -32.17890 | 152.14564 | 35788 ft | 444 kts | 7° |
| 2026-05-06 19:01 | -32.11923 | 152.16441 | 36248 ft | 444 kts | 7° |
| 2026-05-06 19:01 | -32.05948 | 152.18317 | 36763 ft | 442 kts | 7° |
| 2026-05-06 19:01 | -32.00008 | 152.20181 | 37210 ft | 442 kts | 6° |
| 2026-05-06 19:02 | -31.94135 | 152.22022 | 37673 ft | 441 kts | 6° |
| 2026-05-06 19:02 | -31.88213 | 152.23873 | 38168 ft | 439 kts | 6° |
| 2026-05-06 19:02 | -31.82282 | 152.25727 | 38512 ft | 440 kts | 6° |